Flag for USA

Past Weather in 46°11'25.3"N, 123°51'32.9"W, USA — Yesterday and Last 2 Weeks

Currently: 58 °F. Fog. (Weather station: Astoria Regional Airport, USA). See more current weather

Past Weather in 46°11'25.3"N, 123°51'32.9"W — Graph

°F

46°11'25.3"N, 123°51'32.9"W Temperature Yesterday

Maximum temperature yesterday: 68 °F (at 3:55 pm)
Minimum temperature yesterday: 56 °F (at 3:55 am)
Average temperature yesterday: 59 °F

High & Low Weather Summary for the Past Weeks

 TemperatureHumidityPressure
High82 °F (Oct 1, 2:55 pm)100% (Sep 21, 2:55 am)30.24 "Hg (Sep 21, 2:55 am)
Low48 °F (Sep 25, 3:55 am)37% (Oct 1, 2:55 pm)29.87 "Hg (Oct 1, 6:55 pm)
Average58 °F88%30.05 "Hg
* Reported Sep 20 10:55 pm — Oct 5 10:55 pm, 46°11'25.3"N, 123°51'32.9"W. Weather by CustomWeather, © 2022

Note: Actual official high and low records may vary slightly from our data, if they occured in-between our weather recording intervals... More about our weather records

46°11'25.3"N, 123°51'32.9"W Weather History for the Previous 24 Hours

Scroll right to see more
 ConditionsComfort  
Time TempWeatherWind HumidityBarometerVisibility
10:55 pm
Wed, Oct 5
58 °FFog.5 mph100%30.13 "Hg1 mi
10:07 pm58 °FFog.7 mph97%30.13 "Hg1 mi
9:50 pm58 °FFog.6 mph97%30.13 "Hg1 mi
8:55 pm58 °FLow clouds.7 mph97%30.12 "Hg10 mi
8:28 pm58 °FPassing clouds.6 mph93%30.12 "Hg10 mi
8:18 pm57 °FPassing clouds.5 mph93%30.12 "Hg10 mi
6:55 pm60 °FClear.5 mph86%30.11 "Hg10 mi
5:55 pm64 °FSunny.6 mph75%30.11 "Hg10 mi
3:55 pm68 °FSunny.10 mph68%30.12 "Hg10 mi
2:55 pm67 °FSunny.N/A71%30.13 "Hg10 mi
1:55 pm64 °FPassing clouds.7 mph75%30.15 "Hg10 mi
1:17 pm63 °FOvercast.No wind81%30.16 "Hg10 mi
12:55 pm62 °FLow clouds.3 mph80%30.16 "Hg10 mi
11:55 am59 °FLow clouds.6 mph90%30.17 "Hg10 mi
10:55 am58 °FLow clouds.7 mph90%30.17 "Hg8 mi
9:55 am58 °FFog.6 mph93%30.17 "Hg3 mi
8:55 am57 °FFog.5 mph93%30.16 "Hg6 mi
7:55 am56 °FFog.No wind97%30.15 "Hg5 mi
7:42 am56 °FFog.No wind97%30.15 "Hg5 mi
6:55 am56 °FFog.No wind97%30.15 "Hg5 mi
6:14 am56 °FFog.No wind97%30.15 "Hg1 mi
5:55 am56 °FFog.No wind97%30.14 "Hg1 mi
5:38 am56 °FFog.No wind97%30.14 "Hg1 mi
4:29 am56 °FFog.No wind97%30.14 "Hg1 mi
3:55 am56 °FFog.No wind93%30.14 "Hg4 mi
2:55 am57 °FLow clouds.No wind90%30.14 "Hg10 mi
1:55 am57 °FLow clouds.No wind90%30.14 "Hg10 mi
12:55 am57 °FLow clouds.No wind90%30.13 "Hg10 mi
Weather by CustomWeather, © 2022

See weather overview